Time;durP1;ratioP1;P1;durP2;ratioP2;P2;SDS_P1;SDS_P2;PMS_P1;PMS_P2;Temp;Humidity;BMP_temperature;BMP_pressure;BME280_temperature;BME280_humidity;BME280_pressure;Samples;Min_cycle;Max_cycle;Signal;HPM_P1;HPM_P2
2023/08/19 00:02:21;;;;;;;9.50;3.90;;;;;;;-143.21;46.82;71074.88;5070881;28;20204;-83
2023/08/19 00:04:48;;;;;;;14.15;4.10;;;;;;;-143.21;46.94;71066.94;5070414;28;20672;-82
2023/08/19 00:07:16;;;;;;;12.38;4.47;;;;;;;-143.21;47.32;71084.78;5070130;28;20213;-82
2023/08/19 00:09:43;;;;;;;7.45;4.13;;;;;;;-143.21;47.28;71080.81;5062924;28;20517;-82
2023/08/19 00:12:10;;;;;;;6.68;3.80;;;;;;;-143.21;47.27;71076.84;5051101;28;20230;-81
2023/08/19 00:14:36;;;;;;;8.35;3.97;;;;;;;-143.21;47.34;71076.84;5050995;28;20200;-81
2023/08/19 00:17:03;;;;;;;14.13;4.30;;;;;;;-143.21;47.13;71076.84;5054923;28;20283;-82
2023/08/19 00:19:30;;;;;;;7.35;3.92;;;;;;;-143.21;47.18;71094.69;5054871;28;20186;-82
2023/08/19 00:21:57;;;;;;;8.48;4.22;;;;;;;-143.21;47.79;71094.69;5054363;28;20638;-81
2023/08/19 00:24:27;;;;;;;6.00;3.80;;;;;;;-143.21;47.61;71098.66;5054759;28;20297;-83
2023/08/19 00:26:54;;;;;;;7.15;3.55;;;;;;;-143.21;47.46;71102.63;5054890;28;20256;-82
2023/08/19 00:29:21;;;;;;;7.93;3.90;;;;;;;-143.21;47.66;71096.69;5054545;28;20660;-83
2023/08/19 00:31:48;;;;;;;5.35;3.83;;;;;;;-143.21;47.96;71106.59;5063803;28;20895;-82
2023/08/19 00:34:15;;;;;;;12.45;4.20;;;;;;;-143.21;48.18;71102.63;5074274;28;20197;-82
2023/08/19 00:36:41;;;;;;;5.47;3.70;;;;;;;-143.21;48.36;71104.59;5074350;28;20201;-82
2023/08/19 00:39:09;;;;;;;8.75;4.18;;;;;;;-143.21;48.13;71108.56;5074301;28;20202;-82
2023/08/19 00:41:37;;;;;;;8.07;4.30;;;;;;;-143.21;48.18;71104.59;5074760;28;20210;-82
2023/08/19 00:44:04;;;;;;;6.35;3.75;;;;;;;-143.21;48.45;71106.59;5074894;28;20193;-82
2023/08/19 00:46:32;;;;;;;9.40;3.83;;;;;;;-143.21;48.34;71106.59;5074558;28;20185;-82
2023/08/19 00:49:00;;;;;;;6.40;3.65;;;;;;;-143.21;48.04;71104.59;5074198;28;20201;-82
2023/08/19 00:51:27;;;;;;;8.27;3.78;;;;;;;-143.21;48.04;71108.56;5074546;28;20193;-82
2023/08/19 00:53:58;;;;;;;7.40;4.05;;;;;;;-143.21;47.98;71108.56;5074212;28;20221;-82
2023/08/19 00:56:25;;;;;;;8.23;3.58;;;;;;;-143.21;48.18;71106.59;5074758;28;20201;-82
2023/08/19 00:58:53;;;;;;;8.38;3.75;;;;;;;-143.21;48.21;71116.50;5074520;28;20202;-82
2023/08/19 01:01:20;;;;;;;7.47;3.65;;;;;;;-143.21;48.16;71116.50;5074249;28;20200;-82
2023/08/19 01:03:47;;;;;;;5.68;3.92;;;;;;;-143.21;48.37;71124.44;5074023;28;20198;-83
2023/08/19 01:06:24;;;;;;;8.10;4.03;;;;;;;-143.21;48.77;71128.41;5074244;28;20197;-82
2023/08/19 01:09:04;;;;;;;5.57;3.92;;;;;;;-143.21;48.57;71132.38;5074223;28;20560;-83
2023/08/19 01:11:48;;;;;;;6.75;3.58;;;;;;;-143.21;48.93;71142.28;5074192;28;20193;-82
2023/08/19 01:14:35;;;;;;;11.57;4.18;;;;;;;-143.21;49.02;71150.22;5074071;28;20185;-83
2023/08/19 01:17:04;;;;;;;5.80;3.58;;;;;;;-143.21;48.87;71150.22;5073976;28;20181;-82
2023/08/19 01:19:32;;;;;;;9.80;4.05;;;;;;;-143.21;48.82;71154.16;5074049;28;20679;-82
2023/08/19 01:22:03;;;;;;;9.98;4.30;;;;;;;-143.21;49.36;71164.09;5074151;28;20197;-82
2023/08/19 01:24:35;;;;;;;8.63;4.43;;;;;;;-143.21;49.31;71166.06;5073499;28;20717;-82
2023/08/19 01:27:04;;;;;;;6.00;4.22;;;;;;;-143.21;49.18;71160.13;5073248;28;20231;-82
2023/08/19 01:29:31;;;;;;;6.38;4.18;;;;;;;-143.21;49.24;71154.16;5073811;28;20197;-82
2023/08/19 01:31:58;;;;;;;11.35;4.40;;;;;;;-143.21;48.98;71146.25;5062303;28;20708;-82
2023/08/19 01:34:25;;;;;;;8.65;4.35;;;;;;;-143.21;49.08;71146.25;5053365;28;20549;-82
2023/08/19 01:36:58;;;;;;;7.47;4.32;;;;;;;-143.21;49.31;71158.13;5053283;28;20961;-82
2023/08/19 01:39:26;;;;;;;8.57;4.30;;;;;;;-143.21;49.48;71166.06;5053670;28;20265;-82
2023/08/19 01:41:56;;;;;;;10.00;3.95;;;;;;;-143.21;49.27;71158.13;5054259;28;20194;-82
2023/08/19 01:44:22;;;;;;;5.95;4.20;;;;;;;-143.21;49.24;71164.09;5053748;28;20205;-82
2023/08/19 01:46:49;;;;;;;11.50;4.25;;;;;;;-143.21;49.71;71170.03;5053469;28;20202;-82
2023/08/19 01:49:15;;;;;;;8.35;4.45;;;;;;;-143.21;49.71;71174.00;5053237;28;20194;-82
2023/08/19 01:51:42;;;;;;;8.75;4.45;;;;;;;-143.21;50.01;71177.97;5053278;28;20198;-82
2023/08/19 01:54:09;;;;;;;7.00;4.30;;;;;;;-143.21;50.00;71181.94;5052959;28;20760;-82
2023/08/19 01:56:36;;;;;;;7.63;4.32;;;;;;;-143.21;50.10;71179.94;5053068;28;20186;-81
2023/08/19 01:59:05;;;;;;;7.10;4.15;;;;;;;-143.21;49.84;71179.94;5053215;28;20221;-82
2023/08/19 02:01:31;;;;;;;6.78;4.38;;;;;;;-143.21;50.22;71183.91;5060024;28;20205;-82
2023/08/19 02:03:58;;;;;;;7.47;4.10;;;;;;;-143.21;50.42;71199.78;5072802;28;20194;-82
2023/08/19 02:06:25;;;;;;;11.88;4.50;;;;;;;-143.21;50.06;71185.88;5072921;28;20258;-82
2023/08/19 02:08:52;;;;;;;7.10;4.63;;;;;;;-143.21;50.22;71185.88;5072997;28;20197;-82
2023/08/19 02:11:19;;;;;;;6.80;4.55;;;;;;;-143.21;50.53;71189.84;5072991;28;20230;-82
2023/08/19 02:13:46;;;;;;;5.65;4.32;;;;;;;-143.21;50.83;71203.72;5072951;28;20228;-82
2023/08/19 02:16:14;;;;;;;6.47;4.55;;;;;;;-143.21;50.48;71199.78;5073811;28;20193;-81
2023/08/19 02:18:41;;;;;;;9.57;4.50;;;;;;;-143.21;50.86;71217.59;5072521;28;20197;-82
2023/08/19 02:21:08;;;;;;;11.35;4.55;;;;;;;-143.21;50.93;71225.53;5072950;28;20278;-81
2023/08/19 02:23:35;;;;;;;7.53;4.72;;;;;;;-143.21;51.12;71225.53;5072547;28;20670;-81
2023/08/19 02:26:01;;;;;;;8.45;4.80;;;;;;;-143.21;51.31;71235.44;5073791;28;20585;-81
2023/08/19 02:28:28;;;;;;;12.82;5.05;;;;;;;-143.21;51.39;71235.44;5068565;28;20198;-82
2023/08/19 02:31:01;;;;;;;7.25;4.90;;;;;;;-143.21;51.30;71229.50;5053956;28;20194;-82
2023/08/19 02:33:30;;;;;;;6.53;4.55;;;;;;;-143.21;51.49;71243.38;5072470;28;20209;-82
2023/08/19 02:35:56;;;;;;;18.33;5.18;;;;;;;-143.21;51.25;71233.47;5071673;28;20198;-80
2023/08/19 02:38:23;;;;;;;7.40;4.93;;;;;;;-143.21;51.27;71245.38;5071305;28;20193;-81
2023/08/19 02:40:50;;;;;;;8.80;4.22;;;;;;;-143.21;51.46;71253.28;5071936;28;20202;-82
2023/08/19 02:43:17;;;;;;;8.13;4.35;;;;;;;-143.21;51.17;71249.34;5071961;28;20209;-82
2023/08/19 02:45:45;;;;;;;10.35;4.50;;;;;;;-143.21;50.87;71241.41;5071699;28;20201;-82
2023/08/19 02:48:11;;;;;;;6.50;4.93;;;;;;;-143.21;51.07;71245.38;5072048;28;20189;-82
2023/08/19 02:50:39;;;;;;;9.75;4.72;;;;;;;-143.21;51.36;71249.34;5072207;28;20198;-82
2023/08/19 02:53:06;;;;;;;5.82;4.63;;;;;;;-143.21;51.46;71261.22;5071919;28;20221;-81
2023/08/19 02:55:33;;;;;;;10.52;4.80;;;;;;;-143.21;51.42;71267.19;5072520;28;20229;-81
2023/08/19 02:58:00;;;;;;;7.50;4.47;;;;;;;-143.21;51.54;71275.09;5071534;28;20197;-82
2023/08/19 03:00:27;;;;;;;10.93;4.95;;;;;;;-143.21;51.95;71277.09;5071684;28;20284;-82
2023/08/19 03:02:55;;;;;;;8.02;4.90;;;;;;;-143.21;51.56;71275.09;5071435;28;20254;-81
2023/08/19 03:05:22;;;;;;;6.95;4.88;;;;;;;-143.21;52.30;71292.94;5071808;28;20189;-81
2023/08/19 03:07:50;;;;;;;6.10;4.68;;;;;;;-143.21;51.77;71294.94;5071595;28;20200;-81
2023/08/19 03:10:17;;;;;;;6.93;4.45;;;;;;;-143.21;51.58;71290.97;5071583;28;20194;-81
2023/08/19 03:12:43;;;;;;;9.57;5.00;;;;;;;-143.21;52.01;71300.88;5071476;28;20216;-81
2023/08/19 03:15:11;;;;;;;11.20;5.00;;;;;;;-143.21;52.17;71304.84;5071485;28;20193;-81
2023/08/19 03:17:37;;;;;;;7.28;5.10;;;;;;;-143.21;52.28;71308.81;5071507;28;20204;-81
2023/08/19 03:20:05;;;;;;;6.78;4.47;;;;;;;-143.21;52.10;71308.81;5071912;28;20190;-82
2023/08/19 03:22:32;;;;;;;6.93;4.80;;;;;;;-143.21;51.83;71296.91;5073703;28;20247;-82
2023/08/19 03:25:00;;;;;;;11.82;4.93;;;;;;;-143.21;51.96;71294.94;5071412;28;20267;-81
2023/08/19 03:27:27;;;;;;;9.00;4.85;;;;;;;-143.21;51.76;71294.94;5071130;28;20678;-81
2023/08/19 03:29:54;;;;;;;10.52;5.32;;;;;;;-143.21;51.99;71294.94;5071427;28;20201;-81
2023/08/19 03:32:21;;;;;;;9.63;4.82;;;;;;;-143.21;51.96;71302.84;5071856;28;20201;-80
2023/08/19 03:34:48;;;;;;;7.28;4.85;;;;;;;-143.21;52.07;71308.81;5071458;28;20248;-80
2023/08/19 03:37:14;;;;;;;7.95;4.68;;;;;;;-143.21;52.17;71314.75;5071529;28;20277;-81
2023/08/19 03:39:41;;;;;;;7.25;4.70;;;;;;;-143.21;52.05;71314.75;5071280;28;20193;-81
2023/08/19 03:42:09;;;;;;;8.77;4.30;;;;;;;-143.21;51.94;71320.69;5071423;28;20202;-81
2023/08/19 03:44:36;;;;;;;11.77;4.90;;;;;;;-143.21;52.04;71320.69;5072717;28;20212;-81
2023/08/19 03:47:03;;;;;;;9.48;4.60;;;;;;;-143.21;52.20;71324.66;5070812;28;20698;-76
2023/08/19 03:49:30;;;;;;;7.90;4.53;;;;;;;-143.21;52.14;71330.63;5070242;28;20286;-76
2023/08/19 03:51:57;;;;;;;7.65;4.68;;;;;;;-143.21;52.12;71332.59;5070292;28;20193;-76
2023/08/19 03:54:23;;;;;;;8.55;4.70;;;;;;;-143.21;52.21;71328.63;5070131;28;20236;-75
2023/08/19 03:56:50;;;;;;;7.00;5.05;;;;;;;-143.21;52.29;71328.63;5070029;28;20198;-76
2023/08/19 03:59:18;;;;;;;8.55;4.90;;;;;;;-143.21;51.94;71322.69;5070543;28;20731;-75
2023/08/19 04:01:45;;;;;;;7.43;4.75;;;;;;;-143.21;51.84;71312.78;5070540;28;20201;-75
2023/08/19 04:04:12;;;;;;;6.63;4.57;;;;;;;-143.21;51.66;71308.81;5070372;28;20204;-76
2023/08/19 04:06:39;;;;;;;11.48;4.90;;;;;;;-143.21;51.46;71304.84;5070321;28;20212;-76
2023/08/19 04:09:06;;;;;;;9.52;5.03;;;;;;;-143.21;51.73;71308.81;5070254;28;20676;-76
2023/08/19 04:11:33;;;;;;;7.45;4.75;;;;;;;-143.21;51.62;71316.75;5070407;28;20186;-77
2023/08/19 04:13:59;;;;;;;7.07;4.93;;;;;;;-143.21;51.78;71322.69;5070632;28;20221;-75
2023/08/19 04:16:27;;;;;;;6.20;4.95;;;;;;;-143.21;51.91;71322.69;5070816;28;20201;-75
2023/08/19 04:18:54;;;;;;;11.15;4.90;;;;;;;-143.21;51.99;71320.69;5070495;28;20190;-75
2023/08/19 04:21:21;;;;;;;12.68;5.43;;;;;;;-143.21;52.17;71324.66;5070317;28;20205;-74
2023/08/19 04:23:48;;;;;;;8.50;5.00;;;;;;;-143.21;51.97;71330.63;5069826;28;20626;-74
2023/08/19 04:26:15;;;;;;;8.57;5.28;;;;;;;-143.21;52.20;71326.66;5070119;28;20280;-74
2023/08/19 04:28:42;;;;;;;11.25;5.20;;;;;;;-143.21;51.89;71328.63;5069960;28;20280;-75
2023/08/19 04:31:10;;;;;;;8.82;4.97;;;;;;;-143.21;52.09;71336.56;5070159;28;20205;-75
2023/08/19 04:33:38;;;;;;;7.10;4.78;;;;;;;-143.21;52.20;71340.53;5070227;28;20274;-75
2023/08/19 04:36:05;;;;;;;11.55;5.70;;;;;;;-143.21;52.47;71348.47;5070109;28;20225;-75
2023/08/19 04:38:32;;;;;;;9.98;5.03;;;;;;;-143.21;52.17;71332.59;5070299;28;20697;-75
2023/08/19 04:41:00;;;;;;;7.93;5.00;;;;;;;-143.21;51.88;71326.66;5069676;28;20194;-76
2023/08/19 04:43:27;;;;;;;12.73;5.57;;;;;;;-143.21;51.94;71324.66;5070478;28;20189;-75
2023/08/19 04:45:54;;;;;;;7.95;5.75;;;;;;;-143.21;51.91;71326.66;5069933;28;20193;-75
2023/08/19 04:48:21;;;;;;;7.53;4.70;;;;;;;-143.21;52.02;71332.59;5070381;28;20193;-75
2023/08/19 04:50:49;;;;;;;8.52;5.28;;;;;;;-143.21;52.34;71340.53;5069864;28;20272;-75
2023/08/19 04:53:16;;;;;;;9.38;5.43;;;;;;;-143.21;52.05;71336.56;5069768;28;20201;-76
2023/08/19 04:55:43;;;;;;;9.13;5.32;;;;;;;-143.21;52.51;71346.47;5069016;28;20181;-75
2023/08/19 04:58:10;;;;;;;9.00;5.65;;;;;;;-143.21;52.61;71358.38;5069073;28;20644;-75
2023/08/19 05:00:37;;;;;;;8.68;5.22;;;;;;;-143.21;52.42;71358.38;5069244;28;20190;-75
2023/08/19 05:03:05;;;;;;;7.13;5.00;;;;;;;-143.21;52.62;71352.44;5072123;28;20201;-76
2023/08/19 05:05:32;;;;;;;11.38;5.22;;;;;;;-143.21;52.14;71344.50;5072143;28;20205;-76
2023/08/19 05:08:00;;;;;;;13.68;5.20;;;;;;;-143.21;52.00;71342.50;5072342;28;20197;-76
2023/08/19 05:10:27;;;;;;;12.32;4.90;;;;;;;-143.21;52.20;71348.47;5071741;28;20205;-77
2023/08/19 05:12:54;;;;;;;7.43;4.88;;;;;;;-143.21;51.96;71350.44;5072476;28;20204;-77
2023/08/19 05:15:21;;;;;;;7.78;4.90;;;;;;;-143.21;52.01;71338.53;5071639;28;20213;-75
2023/08/19 05:17:48;;;;;;;9.13;5.05;;;;;;;-143.21;51.80;71336.56;5072003;28;20231;-77
2023/08/19 05:20:15;;;;;;;7.85;5.15;;;;;;;-143.21;51.88;71320.69;5072535;28;20322;-75
2023/08/19 05:22:41;;;;;;;9.55;4.95;;;;;;;-143.21;51.86;71322.69;5072012;28;20212;-75
2023/08/19 05:25:10;;;;;;;8.75;5.25;;;;;;;-143.21;51.84;71324.66;5071527;28;20192;-75
2023/08/19 05:27:37;;;;;;;7.72;4.78;;;;;;;-143.21;52.09;71328.63;5071924;28;20194;-76
2023/08/19 05:30:07;;;;;;;7.93;4.97;;;;;;;-143.21;52.10;71324.66;5072065;28;20251;-75
2023/08/19 05:32:33;;;;;;;6.22;4.75;;;;;;;-143.21;52.25;71328.63;5072004;28;20579;-76
2023/08/19 05:35:00;;;;;;;11.10;5.22;;;;;;;-143.21;51.76;71326.66;5071916;28;20213;-76
2023/08/19 05:37:27;;;;;;;9.98;5.15;;;;;;;-143.21;52.03;71322.69;5071747;28;20189;-76
2023/08/19 05:39:54;;;;;;;9.93;5.57;;;;;;;-143.21;51.77;71316.75;5071654;28;20189;-76
2023/08/19 05:42:22;;;;;;;9.75;5.10;;;;;;;-143.21;51.80;71314.75;5072248;28;20189;-77
2023/08/19 05:44:49;;;;;;;13.90;5.22;;;;;;;-143.21;51.83;71316.75;5071352;28;20200;-77
2023/08/19 05:47:16;;;;;;;10.07;5.32;;;;;;;-143.21;52.41;71318.72;5071652;28;20205;-77
2023/08/19 05:49:42;;;;;;;8.68;5.15;;;;;;;-143.21;51.85;71312.78;5071464;28;20201;-76
2023/08/19 05:52:09;;;;;;;11.43;5.35;;;;;;;-143.21;52.04;71308.81;5071059;28;20193;-76
2023/08/19 05:54:36;;;;;;;8.50;5.97;;;;;;;-143.21;51.83;71296.91;5025604;28;1159104;-76
2023/08/19 05:57:03;;;;;;;9.13;5.22;;;;;;;-143.21;51.48;71281.06;5050473;28;20194;-77
2023/08/19 05:59:31;;;;;;;9.98;5.47;;;;;;;-143.21;51.78;71277.09;5050452;28;20190;-75
2023/08/19 06:01:58;;;;;;;15.45;4.90;;;;;;;-143.21;51.23;71273.13;5061281;28;20205;-75
2023/08/19 06:04:27;;;;;;;8.43;5.53;;;;;;;-143.21;51.28;71265.19;5070512;28;20254;-75
2023/08/19 06:06:54;;;;;;;8.35;5.13;;;;;;;-143.21;51.07;71273.13;5069514;28;20194;-77
2023/08/19 06:09:21;;;;;;;13.27;4.95;;;;;;;-143.21;50.89;71265.19;5069987;28;20201;-77
2023/08/19 06:11:49;;;;;;;10.43;5.15;;;;;;;-143.21;50.64;71273.13;5070868;28;20335;-76
2023/08/19 06:14:16;;;;;;;9.32;5.00;;;;;;;-143.21;50.81;71283.03;5070185;28;20777;-75
2023/08/19 06:16:45;;;;;;;8.45;5.00;;;;;;;-143.21;50.74;71285.03;5070220;28;20282;-77
2023/08/19 06:19:12;;;;;;;5.82;4.90;;;;;;;-143.21;51.01;71294.94;5070216;28;20197;-75
2023/08/19 06:21:39;;;;;;;10.43;4.90;;;;;;;-143.21;51.11;71302.84;5069993;28;20198;-76
2023/08/19 06:24:07;;;;;;;7.95;4.97;;;;;;;-143.21;51.31;71304.84;5068952;28;20204;-76
2023/08/19 06:26:34;;;;;;;9.10;5.15;;;;;;;-143.21;51.23;71288.97;5071192;28;20194;-76
2023/08/19 06:29:00;;;;;;;6.55;4.95;;;;;;;-143.21;50.37;71225.53;5070435;28;20201;-77
2023/08/19 06:31:28;;;;;;;8.38;5.28;;;;;;;-143.21;49.84;71201.75;5069602;28;20212;-76
2023/08/19 06:33:56;;;;;;;16.67;5.45;;;;;;;-143.21;49.44;71187.88;5069988;28;20221;-76
2023/08/19 06:36:25;;;;;;;9.10;4.50;;;;;;;-143.21;49.07;71179.94;5069723;28;20758;-77
2023/08/19 06:39:03;;;;;;;10.82;5.15;;;;;;;-143.21;49.34;71189.84;5070321;28;20193;-79
2023/08/19 06:41:32;;;;;;;6.82;4.80;;;;;;;-143.21;49.42;71191.84;5071033;28;20181;-80
2023/08/19 06:44:01;;;;;;;8.98;4.72;;;;;;;-143.21;49.00;71183.91;5070943;28;20201;-80
2023/08/19 06:46:29;;;;;;;10.48;5.07;;;;;;;-143.21;49.13;71177.97;5071428;28;20556;-82
2023/08/19 06:48:58;;;;;;;5.57;4.40;;;;;;;-143.21;48.79;71166.06;5071640;28;20205;-82
2023/08/19 06:51:29;;;;;;;7.95;4.63;;;;;;;-143.21;47.78;71144.25;5070729;28;20292;-81
2023/08/19 06:54:00;;;;;;;7.47;4.55;;;;;;;-143.21;47.77;71130.38;5070984;28;20232;-80
2023/08/19 06:56:33;;;;;;;9.93;4.57;;;;;;;-143.21;47.75;71110.56;5071037;28;20200;-83
2023/08/19 06:59:06;;;;;;;14.35;4.63;;;;;;;-143.21;46.79;71096.69;5070949;28;20652;-83
2023/08/19 07:01:35;;;;;;;12.38;4.50;;;;;;;-143.21;47.29;71086.75;5071860;28;20208;-81
2023/08/19 07:04:04;;;;;;;21.55;4.88;;;;;;;-143.21;46.84;71076.84;5071168;28;20200;-82
2023/08/19 07:06:32;;;;;;;18.95;4.72;;;;;;;-143.21;47.54;71062.97;5071152;28;20198;-82
2023/08/19 07:09:11;;;;;;;8.85;4.20;;;;;;;-143.21;46.24;71059.00;5070747;28;20201;-80
2023/08/19 07:11:38;;;;;;;11.35;4.32;;;;;;;-143.21;45.31;71037.22;5070075;28;20200;-81
2023/08/19 07:14:06;;;;;;;6.78;4.82;;;;;;;-143.21;45.24;71033.25;5070547;28;20224;-81
2023/08/19 07:16:34;;;;;;;7.28;4.10;;;;;;;-143.21;45.65;71035.22;5070190;28;20800;-80
2023/08/19 07:19:11;;;;;;;17.90;4.65;;;;;;;-143.21;45.70;71033.25;5068825;28;20229;-82
2023/08/19 07:21:39;;;;;;;10.57;4.40;;;;;;;-143.21;45.59;71033.25;5070527;28;20578;-83
2023/08/19 07:24:07;;;;;;;8.18;4.13;;;;;;;-143.21;45.38;71019.38;5069096;28;20189;-83
2023/08/19 07:26:35;;;;;;;9.00;4.55;;;;;;;-143.21;45.14;71015.41;5071021;28;20193;-83
2023/08/19 07:29:03;;;;;;;9.38;4.47;;;;;;;-143.21;45.08;70999.53;5072130;28;20197;-81
2023/08/19 07:31:32;;;;;;;8.55;4.72;;;;;;;-143.21;44.51;70997.56;5069981;28;20201;-81
2023/08/19 07:33:59;;;;;;;10.55;4.20;;;;;;;-143.21;43.58;70989.63;5069864;28;20250;-82
2023/08/19 07:36:28;;;;;;;7.30;3.90;;;;;;;-143.21;43.02;70989.63;5070609;28;20193;-82
2023/08/19 07:38:55;;;;;;;6.50;3.92;;;;;;;-143.21;42.44;70973.78;5070679;28;20209;-82
2023/08/19 07:41:21;;;;;;;8.57;3.78;;;;;;;-143.21;41.81;70985.66;5070273;28;20189;-78
2023/08/19 07:43:49;;;;;;;9.00;4.15;;;;;;;-143.21;41.73;70979.72;5069992;28;20204;-79
2023/08/19 07:46:18;;;;;;;5.47;3.67;;;;;;;-143.21;41.27;70983.69;5070482;28;20723;-79
2023/08/19 07:48:45;;;;;;;4.85;3.80;;;;;;;-143.21;41.08;70985.66;5069931;28;20193;-79
2023/08/19 07:51:12;;;;;;;4.78;3.58;;;;;;;-143.21;40.31;70985.66;5070197;28;20196;-80
2023/08/19 07:53:41;;;;;;;6.15;3.80;;;;;;;-143.21;39.99;70999.53;5070275;28;20233;-80
2023/08/19 07:56:08;;;;;;;5.35;3.60;;;;;;;-143.21;41.11;70993.59;5056196;28;20218;-81
2023/08/19 07:58:36;;;;;;;4.18;3.30;;;;;;;-143.21;41.02;70987.66;5051142;28;20285;-79
2023/08/19 08:01:03;;;;;;;8.00;4.07;;;;;;;-143.21;40.81;70981.69;5052771;28;20205;-80
2023/08/19 08:03:30;;;;;;;5.38;3.72;;;;;;;-143.21;40.89;70987.66;5069751;28;20204;-80
2023/08/19 08:05:57;;;;;;;22.02;4.30;;;;;;;-143.21;40.60;70991.63;5069802;28;20193;-78
2023/08/19 08:08:23;;;;;;;4.82;3.63;;;;;;;-143.21;40.61;70979.72;5069824;28;20197;-79
2023/08/19 08:10:53;;;;;;;4.88;3.78;;;;;;;-143.21;40.96;70983.69;5069796;28;20204;-80
2023/08/19 08:13:21;;;;;;;5.38;3.63;;;;;;;-143.21;40.84;70977.72;5070295;28;20259;-78
2023/08/19 08:15:47;;;;;;;4.55;3.58;;;;;;;-143.21;40.75;70977.72;5071308;28;20611;-82
2023/08/19 08:18:14;;;;;;;7.82;3.92;;;;;;;-143.21;41.20;70967.81;5070657;28;20220;-81
2023/08/19 08:20:41;;;;;;;4.57;3.67;;;;;;;-143.21;41.54;70948.00;5070416;28;20202;-80
2023/08/19 08:23:08;;;;;;;5.18;3.63;;;;;;;-143.21;40.65;70942.06;5070415;28;20208;-81
2023/08/19 08:25:35;;;;;;;8.85;3.70;;;;;;;-143.21;41.33;70936.09;5068821;28;20193;-82
2023/08/19 08:28:03;;;;;;;8.73;3.70;;;;;;;-143.21;41.41;70906.38;5070386;28;20221;-82
2023/08/19 08:30:30;;;;;;;5.55;3.83;;;;;;;-143.21;40.91;70900.41;5070038;28;20520;-79
2023/08/19 08:32:57;;;;;;;4.90;3.58;;;;;;;-143.21;40.17;70898.44;5068963;28;20198;-79
2023/08/19 08:35:24;;;;;;;11.50;3.90;;;;;;;-143.21;40.63;70910.34;5069337;28;20229;-80
2023/08/19 08:37:51;;;;;;;5.82;3.70;;;;;;;-143.21;41.18;70916.28;5072818;28;20212;-80
2023/08/19 08:40:18;;;;;;;9.40;4.18;;;;;;;-143.21;41.72;70914.31;5072980;28;20193;-80
2023/08/19 08:42:45;;;;;;;6.10;3.70;;;;;;;-143.21;41.37;70908.34;5071905;28;20208;-78
2023/08/19 08:45:13;;;;;;;8.30;4.28;;;;;;;-143.21;41.91;70874.66;5071809;28;20201;-79
2023/08/19 08:47:41;;;;;;;4.30;3.58;;;;;;;-143.21;40.73;70872.66;5071676;28;20284;-81
2023/08/19 08:50:11;;;;;;;8.02;3.85;;;;;;;-143.21;41.54;70878.63;5073417;28;20189;-81
2023/08/19 08:52:40;;;;;;;5.95;3.63;;;;;;;-143.21;41.32;70868.72;5073289;28;20361;-81
2023/08/19 08:55:09;;;;;;;6.18;3.70;;;;;;;-143.21;41.17;70854.84;5072913;28;20320;-80
2023/08/19 08:57:36;;;;;;;3.97;3.45;;;;;;;-143.21;40.90;70850.88;5073363;28;20201;-80
2023/08/19 09:00:03;;;;;;;5.25;3.78;;;;;;;-143.21;39.94;70848.88;5072940;28;20202;-80
2023/08/19 09:02:33;;;;;;;5.30;3.85;;;;;;;-143.21;39.87;70868.72;5073440;28;20228;-81
2023/08/19 09:05:03;;;;;;;7.30;3.75;;;;;;;-143.21;39.57;70884.56;5073773;28;20204;-81
2023/08/19 09:07:33;;;;;;;7.32;3.55;;;;;;;-143.21;40.73;70878.63;5073767;28;20265;-81
2023/08/19 09:10:00;;;;;;;5.45;3.25;;;;;;;-143.21;39.39;70886.53;5073134;28;20204;-81
2023/08/19 09:12:28;;;;;;;7.53;3.40;;;;;;;-143.21;40.17;70884.56;5073552;28;20574;-80
2023/08/19 09:14:59;;;;;;;6.00;3.75;;;;;;;-143.21;41.28;70872.66;5072946;28;20594;-80
2023/08/19 09:17:25;;;;;;;4.82;3.30;;;;;;;-143.21;40.46;70870.69;5073469;28;20681;-80
2023/08/19 09:19:53;;;;;;;7.72;3.42;;;;;;;-143.21;39.83;70850.88;5073269;28;20668;-81
2023/08/19 09:22:23;;;;;;;8.77;5.00;;;;;;;-143.21;39.89;70835.00;5073640;28;20637;-80
2023/08/19 09:24:50;;;;;;;9.98;4.90;;;;;;;-143.21;40.07;70811.22;5071345;28;20602;-80
2023/08/19 09:27:35;;;;;;;15.23;6.78;;;;;;;-143.21;39.85;70801.31;5072202;28;20193;-80
2023/08/19 09:30:02;;;;;;;6.22;3.97;;;;;;;-143.21;38.79;70773.56;5071850;28;20193;-80
2023/08/19 09:32:29;;;;;;;4.30;3.42;;;;;;;-143.21;38.21;70751.75;5071447;28;20639;-80
2023/08/19 09:35:03;;;;;;;6.60;3.60;;;;;;;-143.21;37.56;70720.03;5071561;28;20234;-80
2023/08/19 09:37:31;;;;;;;6.85;3.63;;;;;;;-143.21;37.66;70712.09;5071643;28;20189;-79
2023/08/19 09:39:58;;;;;;;6.57;3.60;;;;;;;-143.21;37.02;70714.09;5071425;28;20205;-80
2023/08/19 09:42:24;;;;;;;5.15;3.70;;;;;;;-143.21;36.92;70678.41;5071271;28;20684;-80
2023/08/19 09:44:52;;;;;;;7.80;3.70;;;;;;;-143.21;36.42;70632.81;5071487;28;20644;-80
2023/08/19 09:47:20;;;;;;;7.18;3.30;;;;;;;-143.21;35.94;70642.72;5070657;28;20720;-79
2023/08/19 09:49:51;;;;;;;5.05;3.45;;;;;;;-143.21;35.92;70652.66;5070902;28;20244;-80
2023/08/19 09:52:19;;;;;;;3.88;3.08;;;;;;;-143.21;35.75;70664.53;5071112;28;20233;-80
2023/08/19 09:54:55;;;;;;;5.25;3.30;;;;;;;-143.21;36.29;70688.31;5070360;28;20276;-80
2023/08/19 09:57:32;;;;;;;8.27;3.45;;;;;;;-143.21;36.50;70684.34;5072301;28;20196;-80
2023/08/19 10:00:00;;;;;;;6.47;3.00;;;;;;;-143.21;36.13;70666.50;5070892;28;20284;-79
2023/08/19 10:02:28;;;;;;;6.05;3.20;;;;;;;-143.21;35.92;70642.72;5071271;28;20213;-81
2023/08/19 10:04:55;;;;;;;5.25;3.05;;;;;;;-143.21;35.13;70662.56;5071306;28;20201;-80
2023/08/19 10:07:31;;;;;;;5.38;2.78;;;;;;;-143.21;35.49;70706.16;5071497;28;20197;-80
2023/08/19 10:10:01;;;;;;;4.88;3.22;;;;;;;-143.21;35.32;70698.22;5071097;28;20282;-80
2023/08/19 10:12:28;;;;;;;5.70;3.13;;;;;;;-143.21;35.50;70684.34;5070829;28;20197;-80
2023/08/19 10:14:58;;;;;;;4.00;3.08;;;;;;;-143.21;34.64;70652.66;5069447;28;20212;-80
2023/08/19 10:17:26;;;;;;;4.30;2.92;;;;;;;-143.21;34.51;70646.69;5070685;28;20205;-80
2023/08/19 10:20:00;;;;;;;4.72;2.60;;;;;;;-143.21;33.82;70630.84;5070042;28;20204;-81
2023/08/19 10:22:31;;;;;;;7.43;2.95;;;;;;;-143.21;33.99;70646.69;5070495;28;20219;-80
2023/08/19 10:24:59;;;;;;;4.95;2.58;;;;;;;-143.21;33.68;70632.81;5069725;28;20212;-79
2023/08/19 10:27:26;;;;;;;7.80;2.90;;;;;;;-143.21;34.13;70620.94;5070246;28;20234;-80
2023/08/19 10:29:57;;;;;;;9.90;3.30;;;;;;;-143.21;33.96;70611.00;5071823;28;20288;-80
2023/08/19 10:32:29;;;;;;;7.22;3.10;;;;;;;-143.21;34.04;70575.34;5072187;28;20205;-80
2023/08/19 10:35:08;;;;;;;9.55;3.33;;;;;;;-143.21;34.11;70565.44;5072686;28;20216;-81
2023/08/19 10:37:41;;;;;;;3.65;2.97;;;;;;;-143.21;33.68;70565.44;5072833;28;20189;-81
2023/08/19 10:40:09;;;;;;;4.45;3.10;;;;;;;-143.21;33.98;70593.19;5072707;28;20288;-81
2023/08/19 10:42:36;;;;;;;5.63;2.92;;;;;;;-143.21;33.51;70593.19;5072324;28;20278;-81
2023/08/19 10:45:05;;;;;;;5.28;3.15;;;;;;;-143.21;33.60;70587.22;5072313;28;20205;-82
2023/08/19 10:47:33;;;;;;;9.75;3.65;;;;;;;-143.21;33.70;70595.16;5072316;28;20208;-81
2023/08/19 10:50:04;;;;;;;5.53;3.05;;;;;;;-143.21;33.74;70591.19;5072577;28;20201;-81
2023/08/19 10:52:31;;;;;;;5.50;3.33;;;;;;;-143.21;33.64;70569.38;5072492;28;20205;-79
2023/08/19 10:55:00;;;;;;;4.40;3.00;;;;;;;-143.21;33.91;70559.47;5071482;28;20240;-79
2023/08/19 10:57:28;;;;;;;5.22;3.20;;;;;;;-143.21;33.78;70498.03;5071316;28;20194;-79
2023/08/19 10:59:57;;;;;;;6.40;3.10;;;;;;;-143.21;32.68;70446.50;5071832;28;20197;-80
2023/08/19 11:02:27;;;;;;;4.40;3.10;;;;;;;-143.21;32.07;70444.53;5071752;28;20301;-80
2023/08/19 11:04:55;;;;;;;5.57;2.95;;;;;;;-143.21;32.30;70394.97;5071314;28;20641;-81
2023/08/19 11:07:22;;;;;;;5.18;2.80;;;;;;;-143.21;32.10;70385.06;5071742;28;20217;-81
2023/08/19 11:09:51;;;;;;;7.25;3.20;;;;;;;-143.21;32.14;70375.16;5071745;28;20212;-81
2023/08/19 11:12:20;;;;;;;4.13;2.90;;;;;;;-143.21;32.34;70377.13;5072411;28;20565;-81
2023/08/19 11:14:48;;;;;;;3.63;3.22;;;;;;;-143.21;32.03;70351.38;5071452;28;20660;-81
2023/08/19 11:17:15;;;;;;;8.20;2.90;;;;;;;-143.21;31.24;70301.81;5071741;28;20223;-81
2023/08/19 11:19:42;;;;;;;7.68;3.30;;;;;;;-143.21;31.80;70355.31;5071634;28;20280;-81
2023/08/19 11:22:13;;;;;;;3.67;2.67;;;;;;;-143.21;31.79;70345.41;5071466;28;20193;-80